Flight Track Log - Related Links

Times and Time Zones

All times are in EDT time to prevent confusion due to time zone crossing. See the N1560T flight status page for this flight to view local times or setup timezone preferences in your user account.

Time Position Orientation Groundspeed Altitude Reporting Facility
EDT Latitude Longitude Course Direction KTS MPH feet Rate Location/Type
Thu 07:16:38 PM 44.4244 -98.0994 81° East 172 198 6,500  Level Minneapolis Center
Thu 07:17:40 PM 44.4275 -98.0339 86° East 170 196 8,200 1,597 Climbing Minneapolis Center
Thu 07:18:42 PM 44.4322 -97.9647 85° East 176 203 9,800 1,935 Climbing Minneapolis Center
Thu 07:19:44 PM 44.4386 -97.8864 83° East 171 197 12,200 1,839 Climbing Minneapolis Center
Thu 07:20:46 PM 44.4425 -97.8178 85° East 175 201 13,600 1,355 Climbing Minneapolis Center
Thu 07:21:48 PM 44.4478 -97.7439 84° East 186 214 15,000 1,355 Climbing Minneapolis Center
Thu 07:22:50 PM 44.4536 -97.6694 84° East 191 220 16,400 919 Climbing Minneapolis Center
Thu 07:23:52 PM 44.4581 -97.5908 85° East 200 230 16,900 288 Climbing Minneapolis Center
Thu 07:24:55 PM 44.4647 -97.4950 84° East 235 270 17,000 48 Climbing Minneapolis Center
Thu 07:25:57 PM 44.4736 -97.3733 84° East 258 297 17,000 -48 Level Minneapolis Center
Thu 07:26:59 PM 44.4806 -97.2733 84° East 260 299 16,900  Descending Minneapolis Center
Thu 07:28:01 PM 44.4869 -97.1719 85° East 261 300 17,000  Climbing Minneapolis Center
Thu 07:29:03 PM 44.4933 -97.0708 85° East 261 300 16,900  Descending Minneapolis Center
Thu 07:30:05 PM 44.5003 -96.9700 84° East 262 302 17,000 48 Climbing Minneapolis Center
Thu 07:31:07 PM 44.5067 -96.8681 85° East 263 303 17,000  Level Minneapolis Center
Thu 07:32:09 PM 44.5133 -96.7481 86° East 259 298 17,000  Level Minneapolis Center
Thu 07:33:11 PM 44.5194 -96.6464 85° East 261 300 17,000  Level Minneapolis Center
Thu 07:34:13 PM 44.5261 -96.5456 85° East 261 300 17,000  Level Minneapolis Center
Thu 07:35:15 PM 44.5319 -96.4450 85° East 259 298 17,000  Level Minneapolis Center
Thu 07:36:18 PM 44.5378 -96.3433 85° East 261 300 17,000  Level Minneapolis Center
Thu 07:37:20 PM 44.5442 -96.2403 85° East 263 303 17,000  Level Minneapolis Center
Thu 07:38:22 PM 44.5500 -96.1378 85° East 264 304 17,000  Level Minneapolis Center
Thu 07:39:24 PM 44.5569 -96.0153 85° East 263 303 17,000  Level Minneapolis Center
Thu 07:40:26 PM 44.5703 -95.9181 79° East 256 295 17,000  Level Minneapolis Center
Thu 07:41:28 PM 44.5861 -95.8242 77° East 250 288 17,000  Level Minneapolis Center
Thu 07:42:30 PM 44.6028 -95.7292 76° East 251 289 17,000  Level Minneapolis Center
Thu 07:43:32 PM 44.6192 -95.6339 76° East 251 289 17,000  Level Minneapolis Center
Thu 07:44:34 PM 44.6347 -95.5367 77° East 254 292 17,000  Level Minneapolis Center
Thu 07:45:36 PM 44.6550 -95.4214 76° East 254 292 17,000  Level Minneapolis Center
Thu 07:46:38 PM 44.6694 -95.3261 78° East 252 290 17,000  Level Minneapolis Center
Thu 07:47:41 PM 44.6856 -95.2300 77° East 253 291 17,000  Level Minneapolis Center
Thu 07:48:43 PM 44.7011 -95.1342 77° East 252 290 17,000  Level Minneapolis Center
Thu 07:49:45 PM 44.7158 -95.0378 78° East 252 290 17,000  Level Minneapolis Center
Thu 07:50:47 PM 44.7306 -94.9417 78° East 252 290 17,000 -435 Level Minneapolis Center
Thu 07:51:49 PM 44.7506 -94.8250 76° East 255 293 16,100 -1,065 Descending Minneapolis Center
Thu 07:52:51 PM 44.7664 -94.7219 78° East 266 306 14,800 -1,210 Descending Minneapolis Center
Thu 07:53:53 PM 44.7803 -94.6308 78° East 266 306 13,600 -1,355 Descending Minneapolis Center
Thu 07:54:55 PM 44.7978 -94.5125 78° East 257 296 12,000 -1,403 Descending Minneapolis Center
Thu 07:55:57 PM 44.8144 -94.4139 77° East 259 298 10,700 -1,258 Descending Minneapolis Center
Thu 07:56:59 PM 44.8289 -94.3164 78° East 255 293 9,400 -1,258 Descending Minneapolis Center
Thu 07:58:01 PM 44.8431 -94.2183 78° East 256 295 8,100 -1,258 Descending Minneapolis Center
Thu 07:59:03 PM 44.8514 -94.1236 83° East 245 282 6,800 -871 Descending Minneapolis Center
Thu 08:00:05 PM 44.8481 -94.0467 93° East 197 227 6,300 -528 Descending Minneapolis Center
Thu 08:01:08 PM 44.8450 -93.9550 93° East 196 226 5,700 -576 Descending Minneapolis Center
Thu 08:02:10 PM 44.8425 -93.8781 93° East 198 228 5,100 -581 Descending Minneapolis Center
Thu 08:03:12 PM 44.8394 -93.8008 93° East 198 228 4,500 -629 Descending Minneapolis Center
Thu 08:04:14 PM 44.8369 -93.7203 92° East 206 237 3,800 -677 Descending Minneapolis Center
Thu 08:05:16 PM 44.8333 -93.6447 94° East 195 224 3,100 -677 Descending Minneapolis Center
Thu 08:06:18 PM 44.8247 -93.5717 99° East 190 219 2,400 -387 Descending Minneapolis Center
Thu 08:07:20 PM 44.8033 -93.4964 112° Southeast 172 198 2,300 -145 Descending Minneapolis Center
Thu 08:08:22 PM 44.7908 -93.4369 106° East 160 184 2,100 -339 Descending Minneapolis Center
Thu 08:09:24 PM 44.8175 -93.4186 26° Northeast 122 140 1,600 -581 Descending Minneapolis Center
Thu 08:10:26 PM 44.8275 -93.4581 290° West 110 127 900 -677 Descending Minneapolis Center
Thu 08:12:00 PM 44.8275 -93.4586 200° South  Level Estimated

Login

Don't have an account? Register now (free) for customized features, flight alerts, and more!